Terminal Aerodrome Forecast
Issued by NWS Midland/Odessa, TX

Home | Current Version | Previous Version | Text Only | Print | Product List | Glossary On
Versions: 1 2 3 4 5 6 7 8 9 10 11 12 13 14 15 16 17 18 19
203
FTUS44 KMAF 261720
TAFMAF
TAF
KMAF 261720Z 2618/2718 26013G23KT P6SM SCT250
     FM270200 19008KT P6SM BKN200
     FM271100 22007KT P6SM OVC030
     FM271400 26011KT P6SM SCT250
     FM271600 27013G23KT P6SM FEW250=

USA.gov is the U.S. government's official web portal to all federal, state and local government web resources and services.